sensor_id;sensor_type;location;lat;lon;timestamp;temperature;humidity
77467;DHT22;66564;42.482;25.548;2023-12-28T00:00:20;9.52;49.94
77467;DHT22;66564;42.482;25.548;2023-12-28T00:02:46;9.51;50.14
77467;DHT22;66564;42.482;25.548;2023-12-28T00:05:12;9.54;49.92
77467;DHT22;66564;42.482;25.548;2023-12-28T00:07:37;9.54;50.09
77467;DHT22;66564;42.482;25.548;2023-12-28T00:10:03;9.52;50.02
77467;DHT22;66564;42.482;25.548;2023-12-28T00:12:29;9.50;50.05
77467;DHT22;66564;42.482;25.548;2023-12-28T00:14:54;9.50;50.29
77467;DHT22;66564;42.482;25.548;2023-12-28T00:17:20;9.50;50.35
77467;DHT22;66564;42.482;25.548;2023-12-28T00:19:46;9.52;50.21
77467;DHT22;66564;42.482;25.548;2023-12-28T00:22:11;9.51;50.34
77467;DHT22;66564;42.482;25.548;2023-12-28T00:24:37;9.50;50.58
77467;DHT22;66564;42.482;25.548;2023-12-28T00:27:02;9.44;50.78
77467;DHT22;66564;42.482;25.548;2023-12-28T00:29:28;9.44;50.97
77467;DHT22;66564;42.482;25.548;2023-12-28T00:31:57;9.45;51.09
77467;DHT22;66564;42.482;25.548;2023-12-28T00:34:22;9.47;51.02
77467;DHT22;66564;42.482;25.548;2023-12-28T00:36:48;9.48;51.08
77467;DHT22;66564;42.482;25.548;2023-12-28T00:39:14;9.48;51.28
77467;DHT22;66564;42.482;25.548;2023-12-28T00:41:40;9.50;51.38
77467;DHT22;66564;42.482;25.548;2023-12-28T00:44:06;9.47;51.40
77467;DHT22;66564;42.482;25.548;2023-12-28T00:46:35;9.47;51.51
77467;DHT22;66564;42.482;25.548;2023-12-28T00:49:00;9.45;51.83
77467;DHT22;66564;42.482;25.548;2023-12-28T00:51:26;9.51;51.95
77467;DHT22;66564;42.482;25.548;2023-12-28T00:53:51;9.48;52.10
77467;DHT22;66564;42.482;25.548;2023-12-28T00:56:17;9.54;52.16
77467;DHT22;66564;42.482;25.548;2023-12-28T00:58:42;9.55;52.34
77467;DHT22;66564;42.482;25.548;2023-12-28T01:01:09;9.58;52.47
77467;DHT22;66564;42.482;25.548;2023-12-28T01:03:34;9.62;52.57
77467;DHT22;66564;42.482;25.548;2023-12-28T01:06:00;9.58;52.87
77467;DHT22;66564;42.482;25.548;2023-12-28T01:08:26;9.61;52.79
77467;DHT22;66564;42.482;25.548;2023-12-28T01:10:51;9.59;52.98
77467;DHT22;66564;42.482;25.548;2023-12-28T01:13:17;9.64;52.93
77467;DHT22;66564;42.482;25.548;2023-12-28T01:15:42;9.61;53.02
77467;DHT22;66564;42.482;25.548;2023-12-28T01:18:08;9.59;53.06
77467;DHT22;66564;42.482;25.548;2023-12-28T01:20:34;9.62;53.01
77467;DHT22;66564;42.482;25.548;2023-12-28T01:23:00;9.64;52.70
77467;DHT22;66564;42.482;25.548;2023-12-28T01:25:26;9.51;52.87
77467;DHT22;66564;42.482;25.548;2023-12-28T01:27:51;9.52;52.89
77467;DHT22;66564;42.482;25.548;2023-12-28T01:30:17;9.52;53.02
77467;DHT22;66564;42.482;25.548;2023-12-28T01:32:42;9.54;53.00
77467;DHT22;66564;42.482;25.548;2023-12-28T01:35:08;9.58;52.81
77467;DHT22;66564;42.482;25.548;2023-12-28T01:37:34;9.44;53.13
77467;DHT22;66564;42.482;25.548;2023-12-28T01:40:00;9.41;53.20
77467;DHT22;66564;42.482;25.548;2023-12-28T01:42:26;9.40;53.27
77467;DHT22;66564;42.482;25.548;2023-12-28T01:44:51;9.41;53.24
77467;DHT22;66564;42.482;25.548;2023-12-28T01:47:18;9.44;53.27
77467;DHT22;66564;42.482;25.548;2023-12-28T01:49:44;9.33;52.72
77467;DHT22;66564;42.482;25.548;2023-12-28T01:52:12;9.21;53.16
77467;DHT22;66564;42.482;25.548;2023-12-28T01:54:38;9.16;53.32
77467;DHT22;66564;42.482;25.548;2023-12-28T01:57:04;9.10;53.48
77467;DHT22;66564;42.482;25.548;2023-12-28T01:59:31;9.01;53.68
77467;DHT22;66564;42.482;25.548;2023-12-28T02:01:57;8.94;54.00
77467;DHT22;66564;42.482;25.548;2023-12-28T02:04:24;9.00;54.01
77467;DHT22;66564;42.482;25.548;2023-12-28T02:06:58;9.09;53.71
77467;DHT22;66564;42.482;25.548;2023-12-28T02:09:24;9.10;53.82
77467;DHT22;66564;42.482;25.548;2023-12-28T02:11:50;9.03;53.99
77467;DHT22;66564;42.482;25.548;2023-12-28T02:14:16;9.00;54.06
77467;DHT22;66564;42.482;25.548;2023-12-28T02:16:50;9.01;53.74
77467;DHT22;66564;42.482;25.548;2023-12-28T02:22:07;9.06;53.76
77467;DHT22;66564;42.482;25.548;2023-12-28T02:24:49;9.14;53.68
77467;DHT22;66564;42.482;25.548;2023-12-28T02:27:14;9.21;53.71
77467;DHT22;66564;42.482;25.548;2023-12-28T02:29:39;9.30;53.59
77467;DHT22;66564;42.482;25.548;2023-12-28T02:32:06;9.31;53.70
77467;DHT22;66564;42.482;25.548;2023-12-28T02:34:37;9.30;53.66
77467;DHT22;66564;42.482;25.548;2023-12-28T02:37:05;9.23;54.08
77467;DHT22;66564;42.482;25.548;2023-12-28T02:39:31;9.23;53.94
77467;DHT22;66564;42.482;25.548;2023-12-28T02:41:57;9.21;54.09
77467;DHT22;66564;42.482;25.548;2023-12-28T02:44:23;9.23;54.34
77467;DHT22;66564;42.482;25.548;2023-12-28T02:46:48;9.24;54.49
77467;DHT22;66564;42.482;25.548;2023-12-28T02:49:14;9.24;54.55
77467;DHT22;66564;42.482;25.548;2023-12-28T02:51:41;9.27;54.65
77467;DHT22;66564;42.482;25.548;2023-12-28T02:54:07;9.30;54.61
77467;DHT22;66564;42.482;25.548;2023-12-28T02:56:33;9.34;54.62
77467;DHT22;66564;42.482;25.548;2023-12-28T02:58:59;9.34;54.55
77467;DHT22;66564;42.482;25.548;2023-12-28T03:01:24;9.34;54.41
77467;DHT22;66564;42.482;25.548;2023-12-28T03:03:49;9.35;54.41
77467;DHT22;66564;42.482;25.548;2023-12-28T03:06:15;9.34;54.41
77467;DHT22;66564;42.482;25.548;2023-12-28T03:08:40;9.33;54.34
77467;DHT22;66564;42.482;25.548;2023-12-28T03:11:06;9.28;54.37
77467;DHT22;66564;42.482;25.548;2023-12-28T03:13:31;9.20;54.41
77467;DHT22;66564;42.482;25.548;2023-12-28T03:15:57;9.14;54.45
77467;DHT22;66564;42.482;25.548;2023-12-28T03:18:23;9.13;54.55
77467;DHT22;66564;42.482;25.548;2023-12-28T03:20:48;9.13;54.55
77467;DHT22;66564;42.482;25.548;2023-12-28T03:23:14;9.19;54.51
77467;DHT22;66564;42.482;25.548;2023-12-28T03:25:39;9.21;54.43
77467;DHT22;66564;42.482;25.548;2023-12-28T03:28:05;9.20;54.28
77467;DHT22;66564;42.482;25.548;2023-12-28T03:30:30;9.23;54.37
77467;DHT22;66564;42.482;25.548;2023-12-28T03:32:56;9.21;54.26
77467;DHT22;66564;42.482;25.548;2023-12-28T03:35:21;9.20;54.47
77467;DHT22;66564;42.482;25.548;2023-12-28T03:37:47;9.13;54.49
77467;DHT22;66564;42.482;25.548;2023-12-28T03:40:13;9.10;54.61
77467;DHT22;66564;42.482;25.548;2023-12-28T03:42:38;9.13;54.57
77467;DHT22;66564;42.482;25.548;2023-12-28T03:45:04;9.09;54.53
77467;DHT22;66564;42.482;25.548;2023-12-28T03:47:31;9.13;54.73
77467;DHT22;66564;42.482;25.548;2023-12-28T03:49:59;9.16;54.78
77467;DHT22;66564;42.482;25.548;2023-12-28T03:52:28;9.19;54.79
77467;DHT22;66564;42.482;25.548;2023-12-28T03:54:57;9.24;54.62
77467;DHT22;66564;42.482;25.548;2023-12-28T03:57:22;9.26;54.56
77467;DHT22;66564;42.482;25.548;2023-12-28T03:59:48;9.28;54.47
77467;DHT22;66564;42.482;25.548;2023-12-28T04:02:13;9.31;54.41
77467;DHT22;66564;42.482;25.548;2023-12-28T04:04:39;9.30;54.37
77467;DHT22;66564;42.482;25.548;2023-12-28T04:07:05;9.31;54.26
77467;DHT22;66564;42.482;25.548;2023-12-28T04:09:33;9.28;54.37
77467;DHT22;66564;42.482;25.548;2023-12-28T04:11:58;9.31;54.82
77467;DHT22;66564;42.482;25.548;2023-12-28T04:14:24;9.33;55.18
77467;DHT22;66564;42.482;25.548;2023-12-28T04:16:49;9.35;54.66
77467;DHT22;66564;42.482;25.548;2023-12-28T04:19:15;9.38;54.43
77467;DHT22;66564;42.482;25.548;2023-12-28T04:21:43;9.33;54.48
77467;DHT22;66564;42.482;25.548;2023-12-28T04:24:09;9.35;54.51
77467;DHT22;66564;42.482;25.548;2023-12-28T04:26:34;9.34;54.46
77467;DHT22;66564;42.482;25.548;2023-12-28T04:29:00;9.35;54.58
77467;DHT22;66564;42.482;25.548;2023-12-28T04:31:26;9.34;54.64
77467;DHT22;66564;42.482;25.548;2023-12-28T04:33:51;9.34;54.66
77467;DHT22;66564;42.482;25.548;2023-12-28T04:36:19;9.26;54.96
77467;DHT22;66564;42.482;25.548;2023-12-28T04:38:45;9.23;54.92
77467;DHT22;66564;42.482;25.548;2023-12-28T04:41:11;9.21;54.76
77467;DHT22;66564;42.482;25.548;2023-12-28T04:43:37;9.19;54.73
77467;DHT22;66564;42.482;25.548;2023-12-28T04:46:06;9.19;54.91
77467;DHT22;66564;42.482;25.548;2023-12-28T04:48:32;9.13;54.82
77467;DHT22;66564;42.482;25.548;2023-12-28T04:50:58;9.14;54.87
77467;DHT22;66564;42.482;25.548;2023-12-28T04:53:23;9.06;55.01
77467;DHT22;66564;42.482;25.548;2023-12-28T04:55:48;9.04;54.94
77467;DHT22;66564;42.482;25.548;2023-12-28T04:58:14;8.94;55.20
77467;DHT22;66564;42.482;25.548;2023-12-28T05:00:40;8.89;55.54
77467;DHT22;66564;42.482;25.548;2023-12-28T05:03:05;8.83;55.50
77467;DHT22;66564;42.482;25.548;2023-12-28T05:05:32;8.79;55.66
77467;DHT22;66564;42.482;25.548;2023-12-28T05:07:58;8.73;55.67
77467;DHT22;66564;42.482;25.548;2023-12-28T05:10:24;8.72;55.56
77467;DHT22;66564;42.482;25.548;2023-12-28T05:12:49;8.72;55.62
77467;DHT22;66564;42.482;25.548;2023-12-28T05:15:15;8.69;55.69
77467;DHT22;66564;42.482;25.548;2023-12-28T05:17:40;8.66;55.79
77467;DHT22;66564;42.482;25.548;2023-12-28T05:20:07;8.63;55.62
77467;DHT22;66564;42.482;25.548;2023-12-28T05:22:32;8.56;55.23
77467;DHT22;66564;42.482;25.548;2023-12-28T05:24:58;8.46;55.13
77467;DHT22;66564;42.482;25.548;2023-12-28T05:27:24;8.46;54.68
77467;DHT22;66564;42.482;25.548;2023-12-28T05:29:49;8.52;54.47
77467;DHT22;66564;42.482;25.548;2023-12-28T05:32:15;8.52;54.67
77467;DHT22;66564;42.482;25.548;2023-12-28T05:34:40;8.53;54.97
77467;DHT22;66564;42.482;25.548;2023-12-28T05:37:06;8.49;55.16
77467;DHT22;66564;42.482;25.548;2023-12-28T05:39:31;8.52;54.80
77467;DHT22;66564;42.482;25.548;2023-12-28T05:41:57;8.50;54.54
77467;DHT22;66564;42.482;25.548;2023-12-28T05:44:22;8.52;54.87
77467;DHT22;66564;42.482;25.548;2023-12-28T05:46:48;8.46;54.95
77467;DHT22;66564;42.482;25.548;2023-12-28T05:49:13;8.50;54.88
77467;DHT22;66564;42.482;25.548;2023-12-28T05:51:40;8.52;54.89
77467;DHT22;66564;42.482;25.548;2023-12-28T05:54:07;8.46;55.18
77467;DHT22;66564;42.482;25.548;2023-12-28T05:56:33;8.57;54.91
77467;DHT22;66564;42.482;25.548;2023-12-28T05:58:58;8.69;54.62
77467;DHT22;66564;42.482;25.548;2023-12-28T06:01:24;8.99;53.69
77467;DHT22;66564;42.482;25.548;2023-12-28T06:03:50;9.23;53.14
77467;DHT22;66564;42.482;25.548;2023-12-28T06:06:18;9.45;52.92
77467;DHT22;66564;42.482;25.548;2023-12-28T06:08:43;9.58;52.39
77467;DHT22;66564;42.482;25.548;2023-12-28T06:11:09;9.71;52.17
77467;DHT22;66564;42.482;25.548;2023-12-28T06:13:34;9.86;51.81
77467;DHT22;66564;42.482;25.548;2023-12-28T06:16:00;10.08;51.52
77467;DHT22;66564;42.482;25.548;2023-12-28T06:18:25;10.28;51.08
77467;DHT22;66564;42.482;25.548;2023-12-28T06:20:51;10.48;51.26
77467;DHT22;66564;42.482;25.548;2023-12-28T06:23:16;10.69;51.50
77467;DHT22;66564;42.482;25.548;2023-12-28T06:25:42;10.87;51.60
77467;DHT22;66564;42.482;25.548;2023-12-28T06:28:07;11.10;50.93
77467;DHT22;66564;42.482;25.548;2023-12-28T06:30:33;11.34;50.23
77467;DHT22;66564;42.482;25.548;2023-12-28T06:32:59;11.62;50.04
77467;DHT22;66564;42.482;25.548;2023-12-28T06:35:24;11.85;49.26
77467;DHT22;66564;42.482;25.548;2023-12-28T06:37:49;12.02;48.34
77467;DHT22;66564;42.482;25.548;2023-12-28T06:40:15;12.28;47.69
77467;DHT22;66564;42.482;25.548;2023-12-28T06:42:40;12.47;47.00
77467;DHT22;66564;42.482;25.548;2023-12-28T06:45:09;12.70;46.18
77467;DHT22;66564;42.482;25.548;2023-12-28T06:47:34;12.91;45.15
77467;DHT22;66564;42.482;25.548;2023-12-28T06:50:00;13.19;44.80
77467;DHT22;66564;42.482;25.548;2023-12-28T06:52:25;13.32;44.03
77467;DHT22;66564;42.482;25.548;2023-12-28T06:54:51;13.48;43.52
77467;DHT22;66564;42.482;25.548;2023-12-28T06:57:18;13.68;43.55
77467;DHT22;66564;42.482;25.548;2023-12-28T06:59:44;13.48;44.38
77467;DHT22;66564;42.482;25.548;2023-12-28T07:02:09;13.57;44.52
77467;DHT22;66564;42.482;25.548;2023-12-28T07:04:35;13.71;44.36
77467;DHT22;66564;42.482;25.548;2023-12-28T07:07:00;13.69;44.45
77467;DHT22;66564;42.482;25.548;2023-12-28T07:09:26;13.49;44.46
77467;DHT22;66564;42.482;25.548;2023-12-28T07:11:51;13.58;44.67
77467;DHT22;66564;42.482;25.548;2023-12-28T07:14:17;13.76;44.21
77467;DHT22;66564;42.482;25.548;2023-12-28T07:16:42;13.83;44.32
77467;DHT22;66564;42.482;25.548;2023-12-28T07:19:08;13.98;43.59
77467;DHT22;66564;42.482;25.548;2023-12-28T07:21:33;14.02;43.80
77467;DHT22;66564;42.482;25.548;2023-12-28T07:23:59;14.16;43.98
77467;DHT22;66564;42.482;25.548;2023-12-28T07:26:24;14.29;43.47
77467;DHT22;66564;42.482;25.548;2023-12-28T07:28:50;14.33;43.61
77467;DHT22;66564;42.482;25.548;2023-12-28T07:31:25;14.36;43.58
77467;DHT22;66564;42.482;25.548;2023-12-28T07:33:51;14.47;43.47
77467;DHT22;66564;42.482;25.548;2023-12-28T07:36:16;14.50;43.85
77467;DHT22;66564;42.482;25.548;2023-12-28T07:38:43;14.63;43.49
77467;DHT22;66564;42.482;25.548;2023-12-28T07:41:09;14.80;42.72
77467;DHT22;66564;42.482;25.548;2023-12-28T07:43:35;14.77;42.31
77467;DHT22;66564;42.482;25.548;2023-12-28T07:46:01;14.97;41.82
77467;DHT22;66564;42.482;25.548;2023-12-28T07:48:27;15.12;42.06
77467;DHT22;66564;42.482;25.548;2023-12-28T07:50:56;15.24;41.22
77467;DHT22;66564;42.482;25.548;2023-12-28T07:53:21;15.45;40.63
77467;DHT22;66564;42.482;25.548;2023-12-28T07:55:47;15.69;39.97
77467;DHT22;66564;42.482;25.548;2023-12-28T07:58:13;15.65;40.29
77467;DHT22;66564;42.482;25.548;2023-12-28T08:00:38;15.89;39.09
77467;DHT22;66564;42.482;25.548;2023-12-28T08:03:04;16.00;39.05
77467;DHT22;66564;42.482;25.548;2023-12-28T08:05:29;16.29;38.56
77467;DHT22;66564;42.482;25.548;2023-12-28T08:07:55;16.44;38.62
77467;DHT22;66564;42.482;25.548;2023-12-28T08:10:20;16.65;37.95
77467;DHT22;66564;42.482;25.548;2023-12-28T08:12:46;16.67;37.93
77467;DHT22;66564;42.482;25.548;2023-12-28T08:15:11;16.85;37.69
77467;DHT22;66564;42.482;25.548;2023-12-28T08:17:37;17.01;37.31
77467;DHT22;66564;42.482;25.548;2023-12-28T08:20:04;17.18;37.12
77467;DHT22;66564;42.482;25.548;2023-12-28T08:22:29;17.15;36.87
77467;DHT22;66564;42.482;25.548;2023-12-28T08:24:56;17.12;36.46
77467;DHT22;66564;42.482;25.548;2023-12-28T08:27:23;17.34;36.63
77467;DHT22;66564;42.482;25.548;2023-12-28T08:29:48;17.45;36.19
77467;DHT22;66564;42.482;25.548;2023-12-28T08:32:14;17.61;36.35
77467;DHT22;66564;42.482;25.548;2023-12-28T08:34:39;17.58;36.05
77467;DHT22;66564;42.482;25.548;2023-12-28T08:37:05;17.63;35.65
77467;DHT22;66564;42.482;25.548;2023-12-28T08:39:30;17.69;35.88
77467;DHT22;66564;42.482;25.548;2023-12-28T08:41:56;17.73;35.65
77467;DHT22;66564;42.482;25.548;2023-12-28T08:44:21;17.83;34.92
77467;DHT22;66564;42.482;25.548;2023-12-28T08:46:48;17.85;34.93
77467;DHT22;66564;42.482;25.548;2023-12-28T08:49:13;17.83;35.10
77467;DHT22;66564;42.482;25.548;2023-12-28T08:51:41;18.01;35.72
77467;DHT22;66564;42.482;25.548;2023-12-28T08:54:07;17.96;34.80
77467;DHT22;66564;42.482;25.548;2023-12-28T08:56:33;18.04;35.06
77467;DHT22;66564;42.482;25.548;2023-12-28T08:58:59;18.03;34.91
77467;DHT22;66564;42.482;25.548;2023-12-28T09:01:24;17.97;35.26
77467;DHT22;66564;42.482;25.548;2023-12-28T09:03:54;18.03;35.01
77467;DHT22;66564;42.482;25.548;2023-12-28T09:06:20;18.00;35.48
77467;DHT22;66564;42.482;25.548;2023-12-28T09:08:49;18.00;35.32
77467;DHT22;66564;42.482;25.548;2023-12-28T09:11:16;18.01;34.91
77467;DHT22;66564;42.482;25.548;2023-12-28T09:13:41;18.10;34.63
77467;DHT22;66564;42.482;25.548;2023-12-28T09:16:09;18.10;34.80
77467;DHT22;66564;42.482;25.548;2023-12-28T09:18:34;18.14;34.71
77467;DHT22;66564;42.482;25.548;2023-12-28T09:21:03;18.21;34.87
77467;DHT22;66564;42.482;25.548;2023-12-28T09:23:28;18.27;34.96
77467;DHT22;66564;42.482;25.548;2023-12-28T09:25:54;18.43;35.42
77467;DHT22;66564;42.482;25.548;2023-12-28T09:28:19;18.58;35.58
77467;DHT22;66564;42.482;25.548;2023-12-28T09:30:45;18.58;34.24
77467;DHT22;66564;42.482;25.548;2023-12-28T09:33:12;18.45;33.93
77467;DHT22;66564;42.482;25.548;2023-12-28T09:35:38;18.37;33.95
77467;DHT22;66564;42.482;25.548;2023-12-28T09:38:03;18.34;34.23
77467;DHT22;66564;42.482;25.548;2023-12-28T09:40:29;18.29;34.45
77467;DHT22;66564;42.482;25.548;2023-12-28T09:43:09;18.14;34.34
77467;DHT22;66564;42.482;25.548;2023-12-28T09:45:37;18.06;34.90
77467;DHT22;66564;42.482;25.548;2023-12-28T09:48:03;17.93;34.69
77467;DHT22;66564;42.482;25.548;2023-12-28T09:50:30;17.68;34.93
77467;DHT22;66564;42.482;25.548;2023-12-28T09:52:55;17.43;35.88
77467;DHT22;66564;42.482;25.548;2023-12-28T09:55:21;17.53;35.89
77467;DHT22;66564;42.482;25.548;2023-12-28T09:57:47;17.56;35.71
77467;DHT22;66564;42.482;25.548;2023-12-28T10:00:13;17.69;35.39
77467;DHT22;66564;42.482;25.548;2023-12-28T10:02:40;17.76;35.39
77467;DHT22;66564;42.482;25.548;2023-12-28T10:05:12;17.75;35.00
77467;DHT22;66564;42.482;25.548;2023-12-28T10:07:44;17.72;35.44
77467;DHT22;66564;42.482;25.548;2023-12-28T10:10:13;17.72;35.29
77467;DHT22;66564;42.482;25.548;2023-12-28T10:12:38;17.80;35.17
77467;DHT22;66564;42.482;25.548;2023-12-28T10:15:05;17.76;35.00
77467;DHT22;66564;42.482;25.548;2023-12-28T10:17:33;17.75;34.94
77467;DHT22;66564;42.482;25.548;2023-12-28T10:20:03;17.61;35.32
77467;DHT22;66564;42.482;25.548;2023-12-28T10:32:44;17.75;35.66
77467;DHT22;66564;42.482;25.548;2023-12-28T10:35:13;17.82;35.19
77467;DHT22;66564;42.482;25.548;2023-12-28T11:50:32;18.07;36.09
77467;DHT22;66564;42.482;25.548;2023-12-28T11:56:36;17.96;36.40
77467;DHT22;66564;42.482;25.548;2023-12-28T11:59:04;17.89;35.99
77467;DHT22;66564;42.482;25.548;2023-12-28T12:01:32;17.82;36.52
77467;DHT22;66564;42.482;25.548;2023-12-28T12:03:58;17.87;37.03
77467;DHT22;66564;42.482;25.548;2023-12-28T12:06:24;17.89;36.87
77467;DHT22;66564;42.482;25.548;2023-12-28T12:08:49;17.91;36.87
77467;DHT22;66564;42.482;25.548;2023-12-28T12:11:16;17.93;36.85
77467;DHT22;66564;42.482;25.548;2023-12-28T12:13:43;17.94;36.35
77467;DHT22;66564;42.482;25.548;2023-12-28T12:16:08;17.89;36.70
77467;DHT22;66564;42.482;25.548;2023-12-28T12:18:34;17.96;36.38
77467;DHT22;66564;42.482;25.548;2023-12-28T12:21:01;17.99;36.39
77467;DHT22;66564;42.482;25.548;2023-12-28T12:23:26;17.83;36.31
77467;DHT22;66564;42.482;25.548;2023-12-28T12:25:52;17.68;36.43
77467;DHT22;66564;42.482;25.548;2023-12-28T12:28:17;17.62;36.63
77467;DHT22;66564;42.482;25.548;2023-12-28T12:31:02;17.61;36.90
77467;DHT22;66564;42.482;25.548;2023-12-28T12:33:28;17.53;37.08
77467;DHT22;66564;42.482;25.548;2023-12-28T12:36:12;17.50;37.55
77467;DHT22;66564;42.482;25.548;2023-12-28T12:38:38;17.48;37.32
77467;DHT22;66564;42.482;25.548;2023-12-28T12:41:03;17.52;37.57
77467;DHT22;66564;42.482;25.548;2023-12-28T12:43:29;17.46;37.38
77467;DHT22;66564;42.482;25.548;2023-12-28T12:45:55;17.45;37.29
77467;DHT22;66564;42.482;25.548;2023-12-28T12:48:20;17.43;37.15
77467;DHT22;66564;42.482;25.548;2023-12-28T12:50:47;17.43;37.14
77467;DHT22;66564;42.482;25.548;2023-12-28T12:53:13;17.38;37.38
77467;DHT22;66564;42.482;25.548;2023-12-28T12:55:38;17.22;37.09
77467;DHT22;66564;42.482;25.548;2023-12-28T12:58:12;17.10;37.58
77467;DHT22;66564;42.482;25.548;2023-12-28T13:00:41;16.98;37.95
77467;DHT22;66564;42.482;25.548;2023-12-28T13:03:10;16.92;38.21
77467;DHT22;66564;42.482;25.548;2023-12-28T13:05:36;16.91;38.29
77467;DHT22;66564;42.482;25.548;2023-12-28T13:08:03;16.72;38.46
77467;DHT22;66564;42.482;25.548;2023-12-28T13:10:29;16.72;38.43
77467;DHT22;66564;42.482;25.548;2023-12-28T13:12:55;16.72;38.61
77467;DHT22;66564;42.482;25.548;2023-12-28T13:15:20;16.74;38.44
77467;DHT22;66564;42.482;25.548;2023-12-28T13:17:54;16.61;38.85
77467;DHT22;66564;42.482;25.548;2023-12-28T13:20:20;16.60;39.11
77467;DHT22;66564;42.482;25.548;2023-12-28T13:22:45;16.59;38.91
77467;DHT22;66564;42.482;25.548;2023-12-28T13:25:12;16.47;38.89
77467;DHT22;66564;42.482;25.548;2023-12-28T13:27:38;16.39;39.12
77467;DHT22;66564;42.482;25.548;2023-12-28T13:30:04;16.33;39.60
77467;DHT22;66564;42.482;25.548;2023-12-28T17:17:59;10.69;52.15
77467;DHT22;66564;42.482;25.548;2023-12-28T17:20:26;10.67;52.28
77467;DHT22;66564;42.482;25.548;2023-12-28T17:22:56;10.73;51.76
77467;DHT22;66564;42.482;25.548;2023-12-28T17:26:02;10.77;51.10
77467;DHT22;66564;42.482;25.548;2023-12-28T17:28:39;10.69;51.33
77467;DHT22;66564;42.482;25.548;2023-12-28T17:31:09;10.70;50.68
77467;DHT22;66564;42.482;25.548;2023-12-28T17:33:36;10.70;50.39
77467;DHT22;66564;42.482;25.548;2023-12-28T17:36:01;10.70;50.59
77467;DHT22;66564;42.482;25.548;2023-12-28T17:38:54;10.69;50.54
77467;DHT22;66564;42.482;25.548;2023-12-28T17:41:29;10.67;50.42
77467;DHT22;66564;42.482;25.548;2023-12-28T17:44:06;10.70;50.30
77467;DHT22;66564;42.482;25.548;2023-12-28T17:46:40;10.70;50.45
77467;DHT22;66564;42.482;25.548;2023-12-28T17:52:01;10.70;50.15
77467;DHT22;66564;42.482;25.548;2023-12-28T17:54:38;10.64;50.14
77467;DHT22;66564;42.482;25.548;2023-12-28T17:57:04;10.59;50.49
77467;DHT22;66564;42.482;25.548;2023-12-28T17:59:29;10.53;50.57
77467;DHT22;66564;42.482;25.548;2023-12-28T18:01:55;10.52;50.59
77467;DHT22;66564;42.482;25.548;2023-12-28T18:04:21;10.62;50.96
77467;DHT22;66564;42.482;25.548;2023-12-28T18:06:47;10.55;51.40
77467;DHT22;66564;42.482;25.548;2023-12-28T18:09:13;10.48;51.15
77467;DHT22;66564;42.482;25.548;2023-12-28T18:11:45;10.49;51.06
77467;DHT22;66564;42.482;25.548;2023-12-28T18:14:32;10.49;51.02
77467;DHT22;66564;42.482;25.548;2023-12-28T18:16:58;10.46;51.12
77467;DHT22;66564;42.482;25.548;2023-12-28T18:19:26;10.39;51.82
77467;DHT22;66564;42.482;25.548;2023-12-28T18:22:05;10.29;52.08
77467;DHT22;66564;42.482;25.548;2023-12-28T18:24:35;10.32;52.49
77467;DHT22;66564;42.482;25.548;2023-12-28T18:27:06;10.30;52.99
77467;DHT22;66564;42.482;25.548;2023-12-28T18:33:02;10.23;53.65
77467;DHT22;66564;42.482;25.548;2023-12-28T18:35:31;10.22;53.64
77467;DHT22;66564;42.482;25.548;2023-12-28T18:37:57;10.22;53.79
77467;DHT22;66564;42.482;25.548;2023-12-28T18:40:22;10.19;53.95
77467;DHT22;66564;42.482;25.548;2023-12-28T18:42:48;10.15;54.00
77467;DHT22;66564;42.482;25.548;2023-12-28T18:45:13;10.10;54.02
77467;DHT22;66564;42.482;25.548;2023-12-28T18:47:39;10.08;54.13
77467;DHT22;66564;42.482;25.548;2023-12-28T18:50:31;10.05;54.50
77467;DHT22;66564;42.482;25.548;2023-12-28T18:52:57;10.01;54.80
77467;DHT22;66564;42.482;25.548;2023-12-28T18:55:23;9.95;54.95
77467;DHT22;66564;42.482;25.548;2023-12-28T19:01:00;9.82;55.10
77467;DHT22;66564;42.482;25.548;2023-12-28T19:03:25;9.75;54.96
77467;DHT22;66564;42.482;25.548;2023-12-28T19:05:53;9.75;55.07
77467;DHT22;66564;42.482;25.548;2023-12-28T19:08:22;9.75;55.06
77467;DHT22;66564;42.482;25.548;2023-12-28T19:10:48;9.75;55.23
77467;DHT22;66564;42.482;25.548;2023-12-28T19:13:14;9.73;55.09
77467;DHT22;66564;42.482;25.548;2023-12-28T19:15:41;9.78;54.81
77467;DHT22;66564;42.482;25.548;2023-12-28T19:18:06;9.73;54.99
77467;DHT22;66564;42.482;25.548;2023-12-28T19:20:32;9.61;54.99
77467;DHT22;66564;42.482;25.548;2023-12-28T19:23:14;9.57;55.04
77467;DHT22;66564;42.482;25.548;2023-12-28T19:25:43;9.52;55.05
77467;DHT22;66564;42.482;25.548;2023-12-28T19:28:08;9.41;55.34
77467;DHT22;66564;42.482;25.548;2023-12-28T20:04:18;9.43;56.06
77467;DHT22;66564;42.482;25.548;2023-12-28T20:06:49;9.50;56.08
77467;DHT22;66564;42.482;25.548;2023-12-28T20:09:14;9.52;56.14
77467;DHT22;66564;42.482;25.548;2023-12-28T20:11:41;9.59;55.83
77467;DHT22;66564;42.482;25.548;2023-12-28T20:14:07;9.62;55.67
77467;DHT22;66564;42.482;25.548;2023-12-28T20:16:32;9.55;55.86
77467;DHT22;66564;42.482;25.548;2023-12-28T20:18:58;9.45;56.23
77467;DHT22;66564;42.482;25.548;2023-12-28T20:21:46;9.48;56.25
77467;DHT22;66564;42.482;25.548;2023-12-28T20:24:12;9.54;56.15
77467;DHT22;66564;42.482;25.548;2023-12-28T20:26:44;9.52;56.17
77467;DHT22;66564;42.482;25.548;2023-12-28T20:29:12;9.57;56.15
77467;DHT22;66564;42.482;25.548;2023-12-28T20:31:38;9.58;56.36
77467;DHT22;66564;42.482;25.548;2023-12-28T20:34:03;9.61;56.36
77467;DHT22;66564;42.482;25.548;2023-12-28T20:36:29;9.59;56.16
77467;DHT22;66564;42.482;25.548;2023-12-28T20:38:54;9.61;56.17
77467;DHT22;66564;42.482;25.548;2023-12-28T20:41:20;9.58;56.46
77467;DHT22;66564;42.482;25.548;2023-12-28T20:43:46;9.61;56.38
77467;DHT22;66564;42.482;25.548;2023-12-28T20:46:12;9.65;56.52
77467;DHT22;66564;42.482;25.548;2023-12-28T20:48:38;9.64;56.27
77467;DHT22;66564;42.482;25.548;2023-12-28T20:51:05;9.57;56.29
77467;DHT22;66564;42.482;25.548;2023-12-28T20:53:31;9.55;56.44
77467;DHT22;66564;42.482;25.548;2023-12-28T20:55:57;9.45;56.72
77467;DHT22;66564;42.482;25.548;2023-12-28T20:58:50;9.43;56.69
77467;DHT22;66564;42.482;25.548;2023-12-28T21:01:16;9.43;56.68
77467;DHT22;66564;42.482;25.548;2023-12-28T21:03:42;9.44;56.56
77467;DHT22;66564;42.482;25.548;2023-12-28T21:06:07;9.40;56.63
77467;DHT22;66564;42.482;25.548;2023-12-28T21:08:33;9.34;56.91
77467;DHT22;66564;42.482;25.548;2023-12-28T21:10:58;9.34;56.79
77467;DHT22;66564;42.482;25.548;2023-12-28T21:13:25;9.33;56.71
77467;DHT22;66564;42.482;25.548;2023-12-28T21:15:56;9.24;56.89
77467;DHT22;66564;42.482;25.548;2023-12-28T21:18:21;9.26;56.87
77467;DHT22;66564;42.482;25.548;2023-12-28T21:20:47;9.23;57.01